Valle Toledo, Valles Caldera, New Mexico Weather observations

Data are for 10 minute period ending at time listed.
 Day   Time   Solar   Ave.   Ave.  Ave.  Vector  Max.   Baro.   Total    
  of    of     Rad.   Air    Rel.  Wind   Wind   Wind  Press.  Precip.   
Year   Day            Temp.  Hum.  Speed  Dir.   Gust                    
2026   (MST)  Kw/m2    F      %     mph   deg.    mph    mb.     in.     
-------------------------------------------------------------------------
 129    5:10   0.00   42.9    34    0.0     0     0.0   731.2    0.00 
 129    5:20   0.01   43.0    34    0.0     0     0.0   731.2    0.00 
 129    5:30   0.01   43.1    34    0.0     0     0.0   731.3    0.00 
 129    5:40   0.01   43.2    34    0.0     0     0.0   731.1    0.00 
 129    5:50   0.02   43.1    34    0.0     0     0.0   731.2    0.00 
 129    6:00   0.02   43.6    34    0.0     0     0.0   731.3    0.00 
 129    6:10   0.02   43.7    35    0.0     0     0.0   731.4    0.00 
 129    6:20   0.18   44.3    34    0.0     0     0.0   731.5    0.00 
 129    6:30   0.23   45.7    32    0.0     0     0.0   731.5    0.00 
 129    6:40   0.26   49.1    29    0.0     0     0.0   731.5    0.00 
 129    6:50   0.30   52.4    28    0.0     0     0.0   731.6    0.00 
 129    7:00   0.34   54.8    28    0.0     0     0.0   731.7    0.00 
 129    7:10   0.38   57.8    23    0.0     0     0.0   731.7    0.00 
 129    7:20   0.41   59.0    21    0.0     0     0.0   731.8    0.00 
 129    7:30   0.45   58.7    22    0.0     0     0.0   732.0    0.00 
 129    7:40   0.49   58.5    22    0.0     0     0.0   731.9    0.00 
 129    7:50   0.52   60.2    18    3.8   130    13.1   731.9    0.00 
 129    8:00   0.56   61.8    17    2.0   139     7.8   731.8    0.00 
 129    8:10   0.59   62.1    15    0.0     0     0.0   731.7    0.00 
 129    8:20   0.63   62.5    14    7.0   128    14.9   731.6    0.00 
 129    8:30   0.66   62.6    13    7.9   128    15.5   731.6    0.00 
 129    8:40   0.69   63.0    13    7.5   129    14.3   732.0    0.00 
 129    8:50   0.72   62.1    13    7.9   113    16.1   732.1    0.00 
 129    9:00   0.75   63.1    13    9.9   124    20.3   732.2    0.00 
 129    9:10   0.78   62.9    13   10.1   123    22.7   732.1    0.00 
 129    9:20   0.81   63.8    13    9.3   133    16.7   732.2    0.00 
 129    9:30   0.83   63.6    13   11.9   136    26.8   732.2    0.00 
 129    9:40   0.86   63.3    13   10.9   122    24.5   731.7    0.00 
 129    9:50   0.89   63.2    13   12.6   121    25.0   731.7    0.00 
 129   10:00   0.92   64.2    13    8.9   114    21.5   731.6    0.00 
 129   10:10   0.98   64.1    13   10.7   115    22.1   731.7    0.00 
 129   10:20   0.91   64.0    12   12.1   118    30.4   731.8    0.00 
 129   10:30   1.01   64.6    12   13.6   136    26.2   731.9    0.00 
 129   10:40   0.87   65.7    12   10.5   133    22.7   732.2    0.00 
 129   10:50   0.49   64.0    12    8.4    95    19.7   732.1    0.00 
 129   11:00   0.97   63.6    13    9.5    94    20.9   732.1    0.00 
 129   11:10   0.68   64.5    12    7.4    96    19.1   732.0    0.00 
 129   11:20   1.06   64.5    13   11.1   123    23.3   731.9    0.00 
 129   11:30   0.61   64.7    12    9.5   118    19.1   731.9    0.00 
 129   11:40   1.15   66.3    13    9.4   100    20.9   731.7    0.00 
 129   11:50   0.66   65.8    12    8.0    90    20.9   731.7    0.00 
 129   12:00   0.88   66.4    13    8.0    93    17.3   731.6    0.00 
 129   12:10   0.74   65.9    12    9.7   116    21.5   731.6    0.00 
 129   12:20   0.48   64.2    13    9.3   111    17.3   731.5    0.00 
 129   12:30   0.48   63.0    14    8.8   132    17.3   731.6    0.00 
 129   12:40   0.86   65.3    12   11.5   128    23.9   731.6    0.00 
 129   12:50   0.70   64.7    13   11.7   112    24.5   731.4    0.00 
 129   13:00   1.10   67.4    12   10.7   127    24.5   731.4    0.00 
 129   13:10   1.06   66.9    12    9.3    87    20.3   731.3    0.00 
 129   13:20   1.05   67.8    12    8.6    95    17.3   731.1    0.00 
 129   13:30   0.85   68.2    11    7.5   106    17.3   731.0    0.00 
 129   13:40   0.98   68.0    11   13.8   129    27.4   730.9    0.00 
 129   13:50   0.78   67.8    11    7.6   105    16.1   730.8    0.00 
 129   14:00   0.84   67.3    11    4.3   103    19.1   730.6    0.00 
 129   14:10   0.85   67.4    11    9.8    88    20.3   730.7    0.00 
 129   14:20   0.79   68.1    10   11.0   116    25.6   730.5    0.00 
 129   14:30   0.75   66.6    11   13.8   127    24.5   730.5    0.00 
 129   14:40   0.76   67.9    10   10.0   122    19.1   730.4    0.00 
 129   14:50   0.70   68.0    11    8.4    94    17.3   730.3    0.00 
 129   15:00   0.79   68.2    11    9.3   110    17.3   730.2    0.00 
 129   15:10   0.62   68.3    10    9.8   120    19.1   730.2    0.00 
 129   15:20   0.58   67.0    11   11.1   118    20.3   730.2    0.00 
 129   15:30   0.54   66.0    11    9.4    89    20.9   730.2    0.00 
 129   15:40   0.67   66.5    11    9.8   105    19.1   730.0    0.00 
 129   15:50   0.62   67.8    10    9.7   106    25.0   730.0    0.00 
 129   16:00   0.24   65.2    10    9.8   102    19.1   730.0    0.00 
 129   16:10   0.32   64.1    10   10.4   121    20.3   730.1    0.00 
 129   16:20   0.33   64.1    10    9.5    93    23.3   730.1    0.00 
 129   16:30   0.52   64.6    10    9.0    95    20.9   729.9    0.00 
 129   16:40   0.37   66.3    10    3.8   118    13.7   729.9    0.00 
 129   16:50   0.41   65.6    10   11.7   118    24.5   730.0    0.00 
 129   17:00   0.41   66.0    10    9.2   108    20.9   729.9    0.00 
 129   17:10   0.22   64.8    11    6.9   104    15.5   729.9    0.00 
 129   17:20   0.32   65.4    10   12.3   120    26.8   729.8    0.00 
 129   17:30   0.26   65.0    10    9.7   111    20.3   729.8    0.00 
 129   17:40   0.21   65.1    10    8.9   109    19.1   730.1    0.00 
 129   17:50   0.18   63.7    11    7.8   104    17.3   730.1    0.00 
 129   18:00   0.16   64.7    11    6.5   121    16.1   730.1    0.00 
 129   18:10   0.13   64.3    11    5.8   119    12.5   730.2    0.00 
 129   18:20   0.04   62.2    11    6.4   118    12.5   730.3    0.00 
 129   18:30   0.02   60.3    12    5.5   133    14.9   730.3    0.00 
 129   18:40   0.01   59.3    12    4.9   142    14.9   730.4    0.00 
 129   18:50   0.01   58.5    12    1.6   142    13.1   730.5    0.00 
 129   19:00   0.00   57.6    13    1.4   157     9.0   730.6    0.00 
 129   19:10   0.00   56.9    13    0.0   183     1.2   730.8    0.00 
 129   19:20   0.00   56.7    13    0.0     0     0.0   730.9    0.00 
 129   19:30   0.00   56.0    13    0.0     0     0.0   731.0    0.00 
 129   19:40   0.00   55.2    13    0.0     0     0.0   731.1    0.00 
 129   19:50   0.00   55.1    14    0.0     0     0.0   731.2    0.00 
 129   20:00   0.00   55.3    15    0.0     0     0.0   731.3    0.00 
 129   20:10   0.00   55.3    17    0.0     0     0.0   731.3    0.00 
 129   20:20   0.00   55.4    18    0.0     0     0.0   731.3    0.00 
 129   20:30   0.00   55.2    19    0.6   175    11.3   731.3    0.00 
 129   20:40   0.00   55.3    19    0.0     0     0.0   731.4    0.00 
 129   20:50   0.00   55.3    20    1.3   167    13.1   731.4    0.00 
 129   21:00   0.00   55.2    20    0.0     0     0.0   731.6    0.00 
 129   21:10   0.00   54.7    21    0.0     0     0.0   731.7    0.00 
 129   21:20   0.00   54.0    22    0.0     0     0.0   731.7    0.00 
 129   21:30   0.00   53.8    22    0.0     0     0.0   731.9    0.00 
 129   21:40   0.00   53.9    22    1.7   154    12.5   731.9    0.00 
 129   21:50   0.00   54.0    22    8.2   154    14.9   731.9    0.00 
 129   22:00   0.00   54.0    22    9.1   160    17.9   731.8    0.00 
 129   22:10   0.00   54.0    22    8.0   161    14.9   731.9    0.00 
 129   22:20   0.00   53.7    22    1.9   166    14.3   731.9    0.00 
 129   22:30   0.00   53.5    22    0.0     0     0.0   731.8    0.00 
 129   22:40   0.00   53.3    22    0.0     0     0.0   731.6    0.00 
 129   22:50   0.00   53.2    22    2.8   162    15.5   731.6    0.00 
 129   23:00   0.00   53.2    22    7.3   157    16.7   731.6    0.00 
 129   23:10   0.00   53.0    23    1.7   160    19.1   731.7    0.00 
 129   23:20   0.00   53.1    23    9.4   167    18.5   731.6    0.00 
 129   23:30   0.00   52.8    23    9.8   164    20.3   731.7    0.00 
 129   23:40   0.00   52.4    23    8.4   167    14.3   731.9    0.00 
 129   23:50   0.00   52.2    22    8.3   164    14.3   731.8    0.00 
 130    0:00   0.00   52.4    22    8.3   152    15.5   731.9    0.00 
 130    0:10   0.00   52.0    23    6.8   152    13.1   731.9    0.00 
 130    0:20   0.00   51.6    23    5.6   150    11.3   731.9    0.00 
 130    0:30   0.00   50.8    24    0.1   132     6.0   732.1    0.00 
 130    0:40   0.00   50.5    25    0.0     0     0.0   732.0    0.00 
 130    0:50   0.00   50.5    25    0.0     0     0.0   732.0    0.00 
 130    1:00   0.00   49.5    26    0.0     0     0.0   732.1    0.00 
 130    1:10   0.00   49.2    27    0.0     0     0.0   732.1    0.00 
 130    1:20   0.00   48.5    28    0.0     0     0.0   731.9    0.00 
 130    1:30   0.00   47.9    29    0.0     0     0.0   732.0    0.00 
 130    1:40   0.00   48.7    26    0.7   150     9.0   732.0    0.00 
 130    1:50   0.00   50.4    25    1.5    94    14.9   732.0    0.00 
 130    2:00   0.00   49.3    26    0.0     0     0.0   731.8    0.00 
 130    2:10   0.00   48.1    27    0.0     0     0.0   731.8    0.00 
 130    2:20   0.00   47.5    27    0.0     0     0.0   731.9    0.00 
 130    2:30   0.00   46.7    28    0.0     0     0.0   732.0    0.00 
 130    2:40   0.00   46.4    29    0.0     0     0.0   732.1    0.00 
 130    2:50   0.00   46.2    29    0.0     0     0.0   732.0    0.00 
 130    3:00   0.00   46.4    29    0.0     0     0.0   732.1    0.00 
 130    3:10   0.00   46.5    30    0.0     0     0.0   732.3    0.00 
 130    3:20   0.00   46.2    30    0.0     0     0.0   732.3    0.00 
 130    3:30   0.00   45.8    30    0.0     0     0.0   732.3    0.00 
 130    3:40   0.00   45.7    30    0.0     0     0.0   732.3    0.00 
 130    3:50   0.00   46.3    29    0.0     0     0.0   732.3    0.00 
 130    4:00   0.00   47.9    27    0.0     0     0.0   732.3    0.00 
 130    4:10   0.00   46.8    30    0.0     0     0.0   732.5    0.00 
 130    4:20   0.00   44.8    32    0.0     0     0.0   732.6    0.00 
 130    4:30   0.00   45.4    31    0.0     0     0.0   732.6    0.00 
 130    4:40   0.00   45.0    32    0.0     0     0.0   732.7    0.00 
 130    4:50   0.00   44.2    34    0.0     0     0.0   732.8    0.00 
 130    5:00   0.00   43.0    36    0.0     0     0.0   732.8    0.00 

Return to Valle Toledo, Valles Caldera graphs page.


Western Regional Climate Center,wrcc@dri.edu